TAF LFMV
LFMV 080200Z 0803/0903 VRB05KT 9999 BKN015 OVC030 TEMPO 0803/0810 4000 RA BECMG 0810/0812 CAVOK=
METAR LFMV
LFMV 080400Z AUTO 35005KT 6000 -RA BKN003/// BKN017/// BKN033/// ///TCU 07/06 Q1002 TEMPO 4000 RA BECMG BKN015 OVC030=
LFMV 080330Z AUTO 36004KT 5000 -RA BR BKN003/// BKN007/// BKN015/// ///TCU 07/06 Q1003 TEMPO RA BECMG BKN015 OVC030=
LFMV 080300Z AUTO 31007KT 4300 +RA BR SCT003/// BKN025/// BKN045/// ///TCU 07/06 Q1003 BECMG BKN015 OVC030=
LFMV 080230Z AUTO 34005KT 6000 RA BKN004/// OVC016/// ///CB 07/06 Q1004 TEMPO 4000 RA BECMG BKN015 OVC030=
LFMV 080200Z AUTO 35008KT 6000 RA BKN004/// OVC016/// ///CB 07/06 Q1004=
WC LFMV
WS LFMV
WV LFMV